Time;durP1;ratioP1;P1;durP2;ratioP2;P2;SDS_P1;SDS_P2;PMS_P1;PMS_P2;Temp;Humidity;BMP_temperature;BMP_pressure;BME280_temperature;BME280_humidity;BME280_pressure;Samples;Min_cycle;Max_cycle;Signal;HPM_P1;HPM_P2
2023/01/08 00:01:18;;;;;;;1.38;1.20;;;13.90;54.10;;;;;;5028221;28;20052;-48
2023/01/08 00:03:46;;;;;;;2.33;1.60;;;13.90;54.20;;;;;;5031010;28;20053;-46
2023/01/08 00:06:16;;;;;;;1.60;1.30;;;13.90;54.20;;;;;;5032562;28;20060;-45
2023/01/08 00:08:44;;;;;;;2.78;1.52;;;13.90;54.20;;;;;;5037592;28;20064;-50
2023/01/08 00:11:11;;;;;;;2.03;1.13;;;13.90;54.30;;;;;;5032971;28;20061;-48
2023/01/08 00:13:39;;;;;;;2.55;1.75;;;13.90;54.30;;;;;;5029191;28;20509;-48
2023/01/08 00:16:08;;;;;;;1.80;1.15;;;13.90;54.30;;;;;;5030527;28;20401;-45
2023/01/08 00:18:37;;;;;;;1.65;1.30;;;13.90;54.40;;;;;;5032943;28;20049;-50
2023/01/08 00:21:05;;;;;;;1.17;1.00;;;13.90;54.50;;;;;;5036317;28;20440;-47
2023/01/08 00:23:33;;;;;;;3.33;1.48;;;13.90;54.50;;;;;;5030188;28;20049;-47
2023/01/08 00:26:01;;;;;;;1.73;1.38;;;13.90;54.50;;;;;;5020023;28;20059;-48
2023/01/08 00:28:28;;;;;;;2.33;1.63;;;13.90;54.50;;;;;;5025080;28;20057;-50
2023/01/08 00:30:55;;;;;;;3.67;1.52;;;13.90;54.50;;;;;;5029688;28;20053;-49
2023/01/08 00:33:23;;;;;;;2.10;1.20;;;13.90;54.60;;;;;;5036199;28;20053;-47
2023/01/08 00:35:51;;;;;;;1.67;1.20;;;13.90;54.60;;;;;;5027979;28;20398;-49
2023/01/08 00:38:18;;;;;;;3.35;1.40;;;13.90;54.60;;;;;;5031970;28;20057;-46
2023/01/08 00:40:48;;;;;;;1.88;1.25;;;13.90;54.60;;;;;;5029580;28;20512;-45
2023/01/08 00:43:15;;;;;;;1.95;1.20;;;13.90;54.70;;;;;;5021986;28;20053;-46
2023/01/08 00:45:42;;;;;;;3.38;1.67;;;14.00;54.80;;;;;;5033446;28;20401;-47
2023/01/08 00:48:10;;;;;;;2.03;1.40;;;13.90;54.70;;;;;;5040605;28;20061;-45
2023/01/08 00:50:37;;;;;;;4.40;1.55;;;14.00;54.80;;;;;;5033656;28;20045;-49
2023/01/08 00:53:06;;;;;;;3.47;1.25;;;13.90;54.80;;;;;;5034467;28;20504;-46
2023/01/08 00:55:33;;;;;;;4.15;1.80;;;13.90;54.80;;;;;;5031083;28;20061;-45
2023/01/08 00:58:00;;;;;;;2.58;1.50;;;14.00;54.80;;;;;;5029858;28;20064;-48
2023/01/08 01:00:27;;;;;;;2.80;1.65;;;14.00;54.80;;;;;;5023408;28;20415;-46
2023/01/08 01:02:55;;;;;;;3.40;1.98;;;14.00;54.90;;;;;;5033714;28;20056;-49
2023/01/08 01:05:22;;;;;;;2.80;1.52;;;14.00;54.80;;;;;;5025187;28;20060;-49
2023/01/08 01:07:49;;;;;;;1.55;1.20;;;14.00;54.90;;;;;;5033359;28;20057;-47
2023/01/08 01:10:18;;;;;;;1.92;1.38;;;13.90;54.80;;;;;;5025254;28;20493;-48
2023/01/08 01:12:45;;;;;;;2.67;1.60;;;14.00;55.40;;;;;;5034273;28;20065;-47
2023/01/08 01:15:15;;;;;;;1.70;1.30;;;14.00;54.90;;;;;;5027006;28;20057;-50
2023/01/08 01:17:44;;;;;;;2.20;1.50;;;14.00;54.90;;;;;;5031073;28;20056;-49
2023/01/08 01:20:14;;;;;;;1.88;1.40;;;14.00;55.00;;;;;;5029753;28;20059;-49
2023/01/08 01:22:42;;;;;;;2.58;1.85;;;14.00;55.00;;;;;;5034747;28;20056;-49
2023/01/08 01:25:10;;;;;;;2.53;1.85;;;14.00;55.00;;;;;;5030328;28;20064;-45
2023/01/08 01:27:38;;;;;;;2.10;1.60;;;14.00;55.00;;;;;;5031633;28;20489;-47
2023/01/08 01:30:07;;;;;;;4.28;1.55;;;14.00;55.00;;;;;;5030995;28;20053;-48
2023/01/08 01:32:34;;;;;;;2.33;1.60;;;14.00;55.00;;;;;;5031354;28;20502;-46
2023/01/08 01:35:03;;;;;;;3.20;1.88;;;14.00;55.00;;;;;;5034207;28;20512;-48
2023/01/08 01:37:31;;;;;;;4.85;1.60;;;14.00;55.00;;;;;;5035692;28;20053;-48
2023/01/08 01:39:58;;;;;;;2.90;2.13;;;14.00;55.00;;;;;;5027058;28;20119;-45
2023/01/08 01:42:40;;;;;;;4.30;2.10;;;14.00;55.00;;;;;;5033467;28;20054;-46
2023/01/08 01:45:18;;;;;;;1.65;1.45;;;14.00;55.00;;;;;;5028350;28;20053;-50
2023/01/08 01:47:47;;;;;;;3.47;1.80;;;14.00;55.10;;;;;;5028243;28;20048;-45
2023/01/08 01:50:18;;;;;;;3.33;1.60;;;14.00;55.10;;;;;;5032242;28;20049;-48
2023/01/08 01:52:49;;;;;;;3.33;1.83;;;14.00;55.10;;;;;;5031679;28;20053;-47
2023/01/08 01:55:17;;;;;;;3.33;2.10;;;14.00;55.20;;;;;;5022414;28;20042;-47
2023/01/08 01:57:49;;;;;;;5.82;2.00;;;14.00;55.20;;;;;;5025257;28;20373;-47
2023/01/08 02:00:18;;;;;;;3.25;2.42;;;14.00;55.40;;;;;;5027790;28;20058;-46
2023/01/08 02:02:46;;;;;;;6.32;2.10;;;14.00;55.50;;;;;;5031093;28;20052;-51
2023/01/08 02:05:13;;;;;;;2.80;1.88;;;14.00;55.60;;;;;;5022116;28;20053;-49
2023/01/08 02:07:44;;;;;;;3.95;2.10;;;14.00;55.70;;;;;;5025402;28;20065;-50
2023/01/08 02:10:16;;;;;;;2.80;1.52;;;14.00;55.70;;;;;;5025817;28;20050;-47
2023/01/08 02:12:51;;;;;;;2.95;2.10;;;14.00;55.80;;;;;;5028950;28;20060;-47
2023/01/08 02:15:25;;;;;;;2.97;2.05;;;14.00;55.90;;;;;;5042978;28;20425;-48
2023/01/08 02:17:54;;;;;;;;;;;14.00;55.90;;;;;;5034883;28;21294;-48
2023/01/08 02:20:27;;;;;;;4.35;1.73;;;14.10;56.00;;;;;;5030568;28;20280;-48
2023/01/08 02:23:11;;;;;;;3.17;1.70;;;14.00;55.80;;;;;;5025726;28;20053;-48
2023/01/08 02:26:05;;;;;;;3.00;1.70;;;14.00;56.00;;;;;;5040697;28;20048;-46
2023/01/08 02:28:36;;;;;;;3.80;2.30;;;14.00;56.00;;;;;;5039319;28;20048;-49
2023/01/08 02:31:04;;;;;;;3.10;2.15;;;14.00;56.00;;;;;;5037696;28;20060;-48
2023/01/08 02:33:32;;;;;;;2.95;2.20;;;14.00;56.10;;;;;;5036903;28;20051;-47
2023/01/08 02:36:21;;;;;;;3.50;2.25;;;14.00;56.10;;;;;;5042573;28;20401;-46
2023/01/08 02:39:01;;;;;;;3.88;2.30;;;14.00;56.20;;;;;;5037246;28;20481;-45
2023/01/08 02:41:39;;;;;;;2.45;1.90;;;14.00;56.20;;;;;;5042226;28;20045;-49
2023/01/08 02:44:09;;;;;;;2.60;2.00;;;14.00;56.20;;;;;;5036661;28;20045;-45
2023/01/08 02:46:39;;;;;;;4.03;2.00;;;14.00;56.20;;;;;;5039855;28;20401;-46
2023/01/08 02:49:09;;;;;;;4.78;2.58;;;14.00;56.30;;;;;;5041023;28;20056;-47
2023/01/08 02:51:40;;;;;;;3.53;1.90;;;14.00;56.30;;;;;;5039692;28;20056;-49
2023/01/08 02:54:14;;;;;;;5.10;2.42;;;14.00;56.40;;;;;;5040741;28;20053;-48
2023/01/08 02:56:46;;;;;;;3.97;2.00;;;14.00;56.50;;;;;;5042149;28;20056;-46
2023/01/08 02:59:15;;;;;;;5.30;2.30;;;14.00;56.40;;;;;;5038578;28;20048;-45
2023/01/08 03:01:43;;;;;;;2.58;2.17;;;14.00;56.40;;;;;;5041094;28;20049;-49
2023/01/08 03:04:17;;;;;;;2.33;1.60;;;14.00;56.50;;;;;;5041993;28;20049;-48
2023/01/08 03:06:45;;;;;;;2.95;1.75;;;14.00;56.40;;;;;;5041544;28;20053;-46
2023/01/08 03:09:14;;;;;;;2.17;1.83;;;14.00;56.40;;;;;;5040967;28;20076;-48
2023/01/08 03:11:51;;;;;;;2.60;1.90;;;14.00;56.40;;;;;;5041367;28;20452;-48
2023/01/08 03:14:22;;;;;;;3.63;1.85;;;14.00;56.50;;;;;;5028329;28;20044;-48
2023/01/08 03:16:54;;;;;;;3.20;1.98;;;14.00;56.50;;;;;;5026713;28;20061;-46
2023/01/08 03:19:25;;;;;;;3.38;1.80;;;14.00;56.70;;;;;;5022575;28;20520;-47
2023/01/08 03:21:54;;;;;;;3.20;1.70;;;14.00;56.60;;;;;;5031796;28;20052;-46
2023/01/08 03:24:26;;;;;;;2.33;1.65;;;14.00;56.60;;;;;;5029679;28;20058;-46
2023/01/08 03:26:58;;;;;;;2.60;1.67;;;14.00;56.60;;;;;;5032095;28;20057;-49
2023/01/08 03:29:27;;;;;;;1.85;1.58;;;14.00;56.70;;;;;;5027161;28;20072;-48
2023/01/08 03:31:59;;;;;;;2.58;1.58;;;14.00;56.70;;;;;;5031673;28;20053;-51
2023/01/08 03:34:32;;;;;;;4.38;1.67;;;13.90;56.70;;;;;;5025880;28;20046;-49
2023/01/08 03:37:03;;;;;;;1.88;1.60;;;14.00;56.70;;;;;;5034068;28;20053;-48
2023/01/08 03:39:34;;;;;;;2.00;1.60;;;14.00;56.70;;;;;;5025047;28;20050;-45
2023/01/08 03:42:07;;;;;;;3.20;2.00;;;14.00;56.80;;;;;;5024503;28;20061;-48
2023/01/08 03:44:34;;;;;;;2.70;1.77;;;14.00;56.80;;;;;;5026735;28;20472;-50
2023/01/08 03:47:03;;;;;;;2.05;1.60;;;14.00;56.80;;;;;;5022522;28;20045;-47
2023/01/08 03:49:31;;;;;;;2.88;2.20;;;14.00;56.80;;;;;;5021479;28;20049;-51
2023/01/08 03:51:58;;;;;;;4.13;1.50;;;14.00;56.80;;;;;;5015977;28;20053;-48
2023/01/08 03:54:29;;;;;;;2.80;1.30;;;14.00;56.90;;;;;;5029721;28;20053;-46
2023/01/08 03:56:57;;;;;;;2.97;1.23;;;14.00;56.90;;;;;;5020030;28;20056;-46
2023/01/08 03:59:25;;;;;;;4.00;1.50;;;14.00;56.90;;;;;;5025677;28;20051;-47
2023/01/08 04:01:52;;;;;;;2.13;1.27;;;13.90;57.00;;;;;;5024337;28;20053;-44
2023/01/08 04:04:20;;;;;;;2.33;1.40;;;13.90;57.00;;;;;;5031595;28;20056;-48
2023/01/08 04:06:47;;;;;;;1.67;1.10;;;13.90;57.00;;;;;;5029947;28;20409;-47
2023/01/08 04:09:14;;;;;;;2.15;1.20;;;13.90;57.10;;;;;;5022132;28;21041;-44
2023/01/08 04:11:41;;;;;;;2.42;1.17;;;13.90;57.10;;;;;;5026683;28;20052;-44
2023/01/08 04:14:11;;;;;;;1.63;1.00;;;13.90;57.20;;;;;;5039310;28;20060;-46
2023/01/08 04:16:39;;;;;;;1.13;1.02;;;13.90;57.20;;;;;;5041042;28;20060;-45
2023/01/08 04:19:06;;;;;;;2.35;1.38;;;13.90;57.30;;;;;;5039379;28;20060;-45
2023/01/08 04:21:34;;;;;;;1.63;1.00;;;13.90;57.30;;;;;;5039475;28;20060;-45
2023/01/08 04:24:01;;;;;;;1.80;1.30;;;13.90;57.40;;;;;;5039537;28;20048;-47
2023/01/08 04:26:28;;;;;;;1.77;1.20;;;13.80;57.30;;;;;;5038445;28;20052;-43
2023/01/08 04:28:55;;;;;;;3.40;1.30;;;13.80;57.30;;;;;;5038565;28;20053;-49
2023/01/08 04:31:22;;;;;;;1.92;1.30;;;13.80;57.40;;;;;;5040579;28;20049;-49
2023/01/08 04:33:51;;;;;;;2.33;1.50;;;13.80;57.40;;;;;;5040302;28;20044;-47
2023/01/08 04:36:18;;;;;;;1.52;1.05;;;13.80;57.60;;;;;;5040956;28;20064;-47
2023/01/08 04:38:45;;;;;;;2.90;1.30;;;13.80;57.60;;;;;;5039506;28;20558;-44
2023/01/08 04:41:13;;;;;;;1.80;1.17;;;13.80;57.60;;;;;;5039601;28;20064;-42
2023/01/08 04:43:40;;;;;;;1.45;0.93;;;13.80;57.60;;;;;;5038581;28;20045;-48
2023/01/08 04:46:07;;;;;;;5.43;1.10;;;13.80;57.60;;;;;;5037529;28;20049;-45
2023/01/08 04:48:35;;;;;;;1.23;1.00;;;13.80;57.70;;;;;;5040796;28;20400;-46
2023/01/08 04:51:05;;;;;;;2.28;1.10;;;13.70;57.70;;;;;;5040664;28;20489;-46
2023/01/08 04:53:35;;;;;;;0.75;0.70;;;13.70;57.70;;;;;;5043584;28;20983;-44
2023/01/08 04:56:04;;;;;;;1.02;0.93;;;13.80;57.80;;;;;;5041880;28;20056;-43
2023/01/08 04:58:32;;;;;;;1.38;1.00;;;13.70;57.80;;;;;;5039620;28;20041;-45
2023/01/08 05:01:01;;;;;;;1.38;1.10;;;13.70;57.80;;;;;;5039185;28;20477;-43
2023/01/08 05:03:28;;;;;;;1.15;0.80;;;13.70;57.80;;;;;;5042636;28;20060;-46
2023/01/08 05:05:55;;;;;;;2.83;1.00;;;13.70;57.80;;;;;;5043337;28;20402;-44
2023/01/08 05:08:24;;;;;;;1.02;0.85;;;13.70;57.80;;;;;;5042659;28;20049;-45
2023/01/08 05:10:51;;;;;;;1.30;0.80;;;13.70;57.80;;;;;;5043228;28;20057;-46
2023/01/08 05:13:18;;;;;;;1.85;0.70;;;13.70;57.80;;;;;;5037129;28;20421;-47
2023/01/08 05:15:45;;;;;;;1.27;0.85;;;13.70;57.90;;;;;;5023814;28;20057;-46
2023/01/08 05:18:12;;;;;;;0.85;0.60;;;13.70;57.90;;;;;;5021734;28;20049;-43
2023/01/08 05:20:40;;;;;;;0.55;0.55;;;13.70;57.90;;;;;;5024399;28;20054;-44
2023/01/08 05:23:07;;;;;;;1.20;0.77;;;13.70;57.90;;;;;;5024156;28;20061;-43
2023/01/08 05:25:36;;;;;;;1.95;0.65;;;13.70;57.90;;;;;;5026507;28;20061;-48
2023/01/08 05:28:03;;;;;;;61.55;26.92;;;13.70;57.90;;;;;;5025792;28;20053;-45
2023/01/08 05:30:30;;;;;;;26.83;12.15;;;13.70;57.90;;;;;;5024656;28;20053;-43
2023/01/08 05:32:57;;;;;;;4.47;2.33;;;13.70;57.90;;;;;;5024505;28;20057;-46
2023/01/08 05:35:25;;;;;;;2.25;1.38;;;13.70;57.90;;;;;;5024454;28;20080;-48
2023/01/08 05:37:52;;;;;;;1.60;0.90;;;13.70;58.00;;;;;;5024839;28;20057;-45
2023/01/08 05:40:19;;;;;;;0.80;0.75;;;13.70;57.90;;;;;;5027618;28;20390;-47
2023/01/08 05:42:48;;;;;;;0.70;0.70;;;13.60;57.90;;;;;;5029143;28;20064;-47
2023/01/08 05:45:15;;;;;;;0.80;0.80;;;13.60;57.90;;;;;;5024757;28;20061;-47
2023/01/08 05:47:42;;;;;;;0.77;0.50;;;13.60;57.90;;;;;;5024325;28;20061;-44
2023/01/08 05:50:10;;;;;;;1.67;1.13;;;13.60;57.80;;;;;;5024245;28;20061;-47
2023/01/08 05:52:37;;;;;;;0.73;0.50;;;13.60;57.80;;;;;;5030883;28;20060;-45
2023/01/08 05:55:05;;;;;;;0.75;0.50;;;13.60;57.80;;;;;;5022451;28;20069;-47
2023/01/08 05:57:32;;;;;;;11.18;5.47;;;13.60;57.80;;;;;;5028189;28;20061;-43
2023/01/08 06:00:01;;;;;;;37.00;16.80;;;13.60;57.80;;;;;;5015230;28;20054;-45
2023/01/08 06:02:28;;;;;;;14.68;6.90;;;13.60;57.80;;;;;;5010487;28;20084;-47
2023/01/08 06:04:55;;;;;;;3.30;2.15;;;13.60;57.70;;;;;;5022053;28;20164;-47
2023/01/08 06:07:22;;;;;;;3.30;0.80;;;13.60;57.70;;;;;;5023132;28;20083;-49
2023/01/08 06:09:49;;;;;;;0.90;0.60;;;13.60;57.70;;;;;;5030259;28;20053;-46
2023/01/08 06:12:17;;;;;;;1.83;0.70;;;13.60;57.60;;;;;;5026823;28;20060;-46
2023/01/08 06:14:44;;;;;;;0.80;0.50;;;13.50;57.60;;;;;;5028452;28;20084;-47
2023/01/08 06:17:13;;;;;;;0.57;0.50;;;13.60;57.70;;;;;;5025808;28;20497;-47
2023/01/08 06:19:40;;;;;;;1.00;0.50;;;13.50;57.60;;;;;;5033983;28;20056;-49
2023/01/08 06:22:08;;;;;;;0.65;0.52;;;13.50;57.60;;;;;;5034641;28;20061;-47
2023/01/08 06:24:35;;;;;;;24.52;11.23;;;13.50;57.60;;;;;;5032403;28;20059;-44
2023/01/08 06:27:02;;;;;;;10.50;5.18;;;13.50;57.60;;;;;;5025023;28;20061;-43
2023/01/08 06:29:29;;;;;;;3.95;1.83;;;13.50;57.60;;;;;;5031878;28;20045;-45
2023/01/08 06:31:56;;;;;;;1.20;0.85;;;13.50;57.60;;;;;;5026282;28;20057;-45
2023/01/08 06:34:25;;;;;;;0.82;0.60;;;13.50;57.60;;;;;;5031795;28;20056;-48
2023/01/08 06:36:52;;;;;;;1.25;0.80;;;13.50;57.60;;;;;;5034425;28;20054;-45
2023/01/08 06:39:19;;;;;;;1.48;0.50;;;13.50;57.60;;;;;;5032096;28;20052;-45
2023/01/08 06:41:47;;;;;;;1.70;0.60;;;13.50;57.60;;;;;;5015408;28;20068;-49
2023/01/08 06:44:14;;;;;;;0.52;0.40;;;13.50;57.50;;;;;;5018289;28;20049;-47
2023/01/08 06:46:41;;;;;;;0.50;0.43;;;13.50;57.50;;;;;;5022068;28;20704;-44
2023/01/08 06:49:09;;;;;;;3.20;0.52;;;13.50;57.40;;;;;;5017519;28;20386;-47
2023/01/08 06:51:37;;;;;;;1.00;0.47;;;13.50;57.40;;;;;;5021002;28;20404;-49
2023/01/08 06:54:05;;;;;;;0.40;0.40;;;13.50;57.40;;;;;;5029106;28;20054;-47
2023/01/08 06:56:32;;;;;;;1.38;0.60;;;13.50;57.40;;;;;;5027605;28;20480;-45
2023/01/08 06:58:59;;;;;;;3.45;0.60;;;13.50;57.50;;;;;;5024160;28;20378;-44
2023/01/08 07:01:26;;;;;;;0.68;0.45;;;13.40;57.50;;;;;;5016741;28;20052;-49
2023/01/08 07:03:54;;;;;;;0.65;0.50;;;13.40;57.50;;;;;;5020841;28;20056;-48
2023/01/08 07:06:22;;;;;;;1.48;0.60;;;13.40;57.50;;;;;;5022975;28;20405;-44
2023/01/08 07:08:51;;;;;;;1.27;0.52;;;13.40;57.60;;;;;;5022475;28;20046;-47
2023/01/08 07:11:18;;;;;;;0.77;0.50;;;13.40;57.60;;;;;;5017233;28;21480;-47
2023/01/08 07:13:45;;;;;;;3.67;0.60;;;13.40;57.70;;;;;;5021223;28;20061;-47
2023/01/08 07:16:14;;;;;;;0.40;0.35;;;13.40;57.80;;;;;;5023292;28;20512;-49
2023/01/08 07:18:42;;;;;;;1.23;0.50;;;13.40;57.80;;;;;;5021789;28;20495;-44
2023/01/08 07:21:09;;;;;;;1.17;0.50;;;13.40;58.40;;;;;;5024794;28;20383;-45
2023/01/08 07:23:37;;;;;;;1.80;0.70;;;13.30;57.90;;;;;;5026520;28;20057;-48
2023/01/08 07:26:07;;;;;;;2.38;1.17;;;13.30;58.00;;;;;;5021762;28;20057;-46
2023/01/08 07:28:34;;;;;;;0.85;0.50;;;13.30;58.00;;;;;;5022390;28;20050;-44
2023/01/08 07:31:05;;;;;;;0.70;0.65;;;13.30;58.10;;;;;;5024397;28;20049;-49
2023/01/08 07:33:33;;;;;;;2.10;0.52;;;13.30;58.10;;;;;;5026772;28;20053;-46
2023/01/08 07:36:00;;;;;;;0.93;0.73;;;13.30;58.20;;;;;;5017657;28;20067;-45
2023/01/08 07:38:28;;;;;;;2.60;0.80;;;13.30;58.20;;;;;;5022840;28;20057;-47
2023/01/08 07:40:56;;;;;;;0.93;0.50;;;13.30;58.30;;;;;;5021683;28;20045;-49
2023/01/08 07:43:28;;;;;;;0.93;0.60;;;13.30;58.30;;;;;;5022475;28;20049;-48
2023/01/08 07:45:56;;;;;;;0.90;0.70;;;13.30;58.40;;;;;;5023451;28;20065;-46
2023/01/08 07:48:23;;;;;;;1.27;0.57;;;13.30;58.50;;;;;;5026717;28;20065;-45
2023/01/08 07:50:50;;;;;;;1.75;0.80;;;13.20;58.50;;;;;;5021732;28;20045;-45
2023/01/08 07:53:18;;;;;;;2.85;0.65;;;13.30;58.50;;;;;;5021952;28;20060;-44
2023/01/08 07:55:46;;;;;;;0.80;0.50;;;13.20;58.60;;;;;;5024943;28;20061;-47
2023/01/08 07:58:14;;;;;;;1.08;0.50;;;13.20;58.60;;;;;;5023596;28;20065;-49
2023/01/08 08:00:43;;;;;;;1.00;0.60;;;13.20;58.60;;;;;;5019165;28;20045;-48
2023/01/08 08:03:11;;;;;;;0.75;0.52;;;13.20;58.70;;;;;;5015801;28;20076;-45
2023/01/08 08:05:38;;;;;;;1.02;0.50;;;13.20;58.70;;;;;;5015868;28;20057;-45
2023/01/08 08:08:09;;;;;;;1.85;0.80;;;13.20;58.70;;;;;;5029391;28;20065;-47
2023/01/08 08:10:37;;;;;;;1.15;0.70;;;13.20;58.70;;;;;;5025789;28;20057;-45
2023/01/08 08:13:04;;;;;;;1.10;0.70;;;13.20;58.60;;;;;;5017815;28;20060;-47
2023/01/08 08:15:33;;;;;;;38.67;15.90;;;13.20;58.60;;;;;;5023632;28;20485;-46
2023/01/08 08:21:24;;;;;;;7.53;3.65;;;13.20;58.70;;;;;;5041397;28;20040;-44
2023/01/08 08:23:51;;;;;;;3.47;1.63;;;13.20;58.60;;;;;;5020969;28;20053;-47
2023/01/08 08:26:18;;;;;;;2.05;0.80;;;13.20;58.60;;;;;;5014273;28;20512;-44
2023/01/08 08:28:46;;;;;;;2.28;0.57;;;13.10;58.50;;;;;;5031048;28;20049;-44
2023/01/08 08:31:13;;;;;;;0.88;0.50;;;13.10;58.50;;;;;;5030416;28;20381;-46
2023/01/08 08:33:40;;;;;;;0.93;0.60;;;13.10;58.50;;;;;;5027358;28;20054;-44
2023/01/08 08:36:09;;;;;;;0.88;0.65;;;13.10;58.50;;;;;;5031696;28;20069;-46
2023/01/08 08:38:38;;;;;;;1.42;0.70;;;13.10;58.50;;;;;;5031019;28;20045;-45
2023/01/08 08:41:07;;;;;;;3.53;1.30;;;13.10;58.50;;;;;;5025689;28;20045;-44
2023/01/08 08:43:34;;;;;;;1.90;1.10;;;13.10;58.50;;;;;;5031896;28;20064;-44
2023/01/08 08:46:02;;;;;;;2.72;1.10;;;13.10;58.60;;;;;;5031910;28;20049;-45
2023/01/08 08:48:30;;;;;;;3.47;0.80;;;13.00;58.60;;;;;;5026145;28;20064;-45
2023/01/08 08:50:57;;;;;;;2.55;0.90;;;13.00;58.60;;;;;;5018119;28;20478;-46
2023/01/08 08:53:25;;;;;;;1.65;0.90;;;13.00;58.60;;;;;;5025483;28;20080;-49
2023/01/08 08:55:54;;;;;;;3.45;1.17;;;13.00;58.60;;;;;;5025078;28;20049;-45
2023/01/08 08:58:21;;;;;;;1.95;0.93;;;13.00;58.70;;;;;;5025821;28;20053;-45
2023/01/08 09:00:48;;;;;;;3.67;1.10;;;13.00;58.60;;;;;;5025382;28;20054;-45
2023/01/08 09:03:16;;;;;;;3.30;0.90;;;13.00;58.60;;;;;;5025613;28;20061;-46
2023/01/08 09:05:44;;;;;;;1.58;0.68;;;13.00;58.60;;;;;;5035184;28;20045;-46
2023/01/08 09:08:12;;;;;;;1.73;0.70;;;13.00;58.50;;;;;;5024902;28;20057;-43
2023/01/08 09:10:41;;;;;;;1.10;0.70;;;13.00;58.50;;;;;;5023048;28;20046;-48
2023/01/08 09:13:10;;;;;;;1.50;0.65;;;13.00;58.50;;;;;;5034609;28;20061;-44
2023/01/08 09:15:37;;;;;;;2.22;0.93;;;13.00;58.40;;;;;;5025213;28;20413;-47
2023/01/08 09:18:05;;;;;;;1.67;0.80;;;13.00;58.40;;;;;;5025236;28;20061;-45
2023/01/08 09:20:32;;;;;;;0.90;0.77;;;13.00;58.40;;;;;;5025318;28;20391;-45
2023/01/08 09:23:01;;;;;;;3.92;1.00;;;12.90;58.40;;;;;;5025285;28;20064;-44
2023/01/08 09:25:29;;;;;;;2.13;1.00;;;12.90;58.40;;;;;;5024012;28;20049;-46
2023/01/08 09:28:00;;;;;;;3.40;0.85;;;12.90;58.40;;;;;;5037099;28;20053;-45
2023/01/08 09:30:29;;;;;;;4.40;1.10;;;12.90;58.50;;;;;;5024555;28;20055;-48
2023/01/08 09:32:57;;;;;;;3.05;0.85;;;12.90;58.50;;;;;;5025082;28;20389;-45
2023/01/08 09:35:25;;;;;;;1.42;0.90;;;12.90;58.50;;;;;;5024329;28;20053;-44
2023/01/08 09:37:52;;;;;;;2.00;0.80;;;12.90;58.50;;;;;;5024855;28;20066;-44
2023/01/08 09:40:22;;;;;;;1.55;1.05;;;12.90;58.50;;;;;;5023866;28;20417;-45
2023/01/08 09:42:55;;;;;;;1.08;0.90;;;12.90;58.50;;;;;;5032461;28;20053;-45
2023/01/08 09:45:26;;;;;;;1.15;0.80;;;12.90;58.60;;;;;;5030566;28;20504;-45
2023/01/08 09:47:56;;;;;;;1.30;0.93;;;12.90;58.60;;;;;;5025022;28;20693;-45
2023/01/08 09:50:27;;;;;;;1.88;0.90;;;12.90;58.60;;;;;;5028795;28;20056;-44
2023/01/08 09:52:55;;;;;;;1.52;0.98;;;12.90;58.70;;;;;;5024711;28;20057;-46
2023/01/08 09:55:22;;;;;;;2.50;0.73;;;12.90;58.70;;;;;;5022311;28;20060;-46
2023/01/08 09:57:50;;;;;;;1.25;1.00;;;12.90;58.70;;;;;;5028239;28;20068;-47
2023/01/08 10:00:21;;;;;;;1.58;1.13;;;12.90;58.70;;;;;;5024456;28;20068;-45
2023/01/08 10:02:49;;;;;;;1.90;1.08;;;12.90;58.80;;;;;;5024650;28;20409;-48
2023/01/08 10:05:18;;;;;;;1.88;1.02;;;12.90;58.80;;;;;;5024619;28;20053;-44
2023/01/08 10:07:46;;;;;;;2.60;0.98;;;12.90;58.80;;;;;;5025504;28;20064;-47
2023/01/08 10:10:19;;;;;;;1.92;0.95;;;12.90;58.90;;;;;;5022679;28;20052;-45
2023/01/08 10:12:48;;;;;;;1.88;0.98;;;12.90;58.90;;;;;;5032756;28;20060;-44
2023/01/08 10:15:17;;;;;;;2.20;1.08;;;12.90;58.90;;;;;;5024312;28;20064;-44
2023/01/08 10:17:49;;;;;;;1.88;1.05;;;12.90;59.00;;;;;;5028948;28;20053;-45
2023/01/08 10:20:19;;;;;;;1.65;0.98;;;13.00;59.10;;;;;;5024014;28;20615;-46
2023/01/08 10:22:47;;;;;;;2.35;1.00;;;13.00;59.10;;;;;;5024715;28;20045;-47
2023/01/08 10:25:17;;;;;;;1.60;0.95;;;13.00;59.10;;;;;;5021437;28;20056;-44
2023/01/08 10:27:49;;;;;;;0.82;0.80;;;13.00;59.10;;;;;;5021851;28;20053;-46
2023/01/08 10:30:18;;;;;;;1.98;1.00;;;13.00;59.10;;;;;;5023975;28;20057;-46
2023/01/08 10:32:51;;;;;;;0.85;0.80;;;13.00;59.20;;;;;;5025987;28;20485;-47
2023/01/08 10:35:23;;;;;;;2.83;1.00;;;13.10;59.20;;;;;;5026008;28;20597;-44
2023/01/08 10:37:51;;;;;;;1.05;0.85;;;13.10;59.20;;;;;;5031718;28;20391;-46
2023/01/08 10:40:23;;;;;;;2.40;0.68;;;13.10;59.20;;;;;;5021015;28;20128;-47
2023/01/08 10:42:52;;;;;;;1.10;0.70;;;13.10;59.20;;;;;;5024418;28;20073;-46
2023/01/08 10:45:21;;;;;;;2.97;0.73;;;13.10;59.30;;;;;;5023513;28;20061;-44
2023/01/08 10:47:52;;;;;;;0.93;0.80;;;13.10;59.30;;;;;;5022991;28;20045;-43
2023/01/08 10:50:23;;;;;;;3.03;0.60;;;13.20;59.30;;;;;;5025002;28;20422;-44
2023/01/08 10:52:55;;;;;;;1.48;0.75;;;13.10;59.30;;;;;;5031490;28;20402;-48
2023/01/08 10:55:25;;;;;;;3.00;0.70;;;13.20;59.30;;;;;;5021364;28;20064;-50
2023/01/08 10:57:55;;;;;;;2.80;1.05;;;13.20;59.30;;;;;;5024060;28;20493;-44
2023/01/08 11:00:24;;;;;;;2.17;0.70;;;13.20;59.40;;;;;;5021664;28;20061;-46
2023/01/08 11:02:52;;;;;;;1.63;0.82;;;13.20;59.50;;;;;;5023443;28;20057;-46
2023/01/08 11:05:29;;;;;;;2.30;1.05;;;13.20;59.50;;;;;;5022812;28;20049;-50
2023/01/08 11:07:59;;;;;;;1.13;0.70;;;13.30;59.60;;;;;;5029474;28;20481;-46
2023/01/08 11:10:28;;;;;;;0.65;0.60;;;13.30;59.50;;;;;;5025221;28;20053;-44
2023/01/08 11:12:58;;;;;;;1.27;0.70;;;13.30;59.50;;;;;;5033493;28;20049;-46
2023/01/08 11:15:31;;;;;;;1.83;0.52;;;13.30;59.40;;;;;;5023251;28;20064;-47
2023/01/08 11:18:07;;;;;;;1.58;0.70;;;13.40;59.40;;;;;;5023367;28;20061;-50
2023/01/08 11:20:36;;;;;;;1.17;0.60;;;13.40;59.10;;;;;;5023149;28;20064;-47
2023/01/08 11:23:07;;;;;;;3.67;1.10;;;13.40;59.00;;;;;;5023149;28;20461;-45
2023/01/08 11:25:35;;;;;;;1.13;0.60;;;13.50;59.00;;;;;;5011923;28;20482;-44
2023/01/08 11:28:05;;;;;;;0.68;0.60;;;13.50;59.00;;;;;;5023918;28;20500;-46
2023/01/08 11:30:36;;;;;;;2.88;1.00;;;13.50;58.80;;;;;;5022744;28;20057;-47
2023/01/08 11:33:09;;;;;;;1.50;0.75;;;13.50;58.40;;;;;;5022708;28;20408;-49
2023/01/08 11:35:42;;;;;;;1.10;0.60;;;13.50;58.80;;;;;;5025759;28;20064;-50
2023/01/08 11:38:12;;;;;;;3.03;0.40;;;13.50;58.00;;;;;;5022926;28;20373;-46
2023/01/08 11:40:46;;;;;;;2.70;0.63;;;13.50;58.30;;;;;;5024107;28;20060;-49
2023/01/08 11:43:27;;;;;;;2.10;1.38;;;13.50;58.00;;;;;;5030015;28;20048;-46
2023/01/08 11:46:24;;;;;;;2.55;0.63;;;13.60;58.20;;;;;;5022753;28;20424;-50
2023/01/08 11:49:06;;;;;;;2.22;1.13;;;13.60;58.30;;;;;;5020972;28;20057;-47
2023/01/08 11:51:51;;;;;;;1.20;0.60;;;13.60;58.30;;;;;;5023027;28;20052;-48
2023/01/08 11:54:30;;;;;;;1.30;0.77;;;13.70;58.30;;;;;;5025836;28;20631;-45
2023/01/08 11:57:09;;;;;;;2.15;0.52;;;13.70;58.50;;;;;;5022074;28;20596;-50
2023/01/08 11:59:59;;;;;;;1.00;0.55;;;13.80;58.20;;;;;;5018128;28;20053;-50
2023/01/08 12:02:41;;;;;;;2.33;0.55;;;13.80;57.80;;;;;;5029867;28;20401;-46
2023/01/08 12:05:29;;;;;;;2.65;1.05;;;13.90;57.50;;;;;;5029309;28;20522;-46
2023/01/08 12:08:03;;;;;;;2.05;0.70;;;13.90;57.00;;;;;;5031031;28;20092;-47
2023/01/08 12:10:37;;;;;;;;;;;14.00;57.20;;;;;;5031372;28;20050;-48
2023/01/08 12:13:17;;;;;;;4.38;0.68;;;14.00;57.20;;;;;;5021209;28;19944;-49
2023/01/08 12:15:55;;;;;;;1.58;0.88;;;14.00;56.90;;;;;;5018349;28;20053;-45
2023/01/08 12:18:42;;;;;;;3.03;1.30;;;14.10;56.80;;;;;;5018351;28;20050;-46
2023/01/08 12:21:18;;;;;;;1.35;0.60;;;14.10;56.70;;;;;;5020590;28;20400;-47
2023/01/08 12:24:11;;;;;;;2.00;0.63;;;14.10;56.50;;;;;;5020163;28;20403;-45
2023/01/08 12:26:47;;;;;;;2.65;0.70;;;14.10;56.30;;;;;;5018090;28;20063;-49
2023/01/08 12:29:40;;;;;;;0.95;0.40;;;14.10;56.20;;;;;;5019970;28;20054;-50
2023/01/08 12:32:36;;;;;;;0.70;0.60;;;14.10;56.30;;;;;;5020835;28;20053;-48
2023/01/08 12:35:10;;;;;;;2.00;0.65;;;14.10;56.20;;;;;;4985909;28;20413;-50
2023/01/08 12:37:44;;;;;;;0.50;0.47;;;14.10;56.30;;;;;;5021437;28;20394;-46
2023/01/08 12:40:20;;;;;;;2.08;0.60;;;14.10;56.30;;;;;;5019706;28;20060;-50
2023/01/08 12:42:48;;;;;;;1.20;0.60;;;14.10;56.30;;;;;;5021108;28;20047;-47
2023/01/08 12:45:20;;;;;;;3.08;0.50;;;14.00;56.20;;;;;;5021144;28;20493;-51
2023/01/08 12:47:52;;;;;;;1.20;0.77;;;14.00;56.20;;;;;;5020549;28;20060;-49
2023/01/08 12:50:46;;;;;;;0.93;0.47;;;14.00;56.30;;;;;;5019993;28;20077;-46
2023/01/08 12:53:21;;;;;;;0.88;0.60;;;14.00;56.30;;;;;;5020680;28;20061;-47
2023/01/08 12:55:59;;;;;;;0.65;0.50;;;14.00;56.10;;;;;;5020511;28;20138;-45
2023/01/08 12:58:39;;;;;;;2.35;0.60;;;14.00;56.20;;;;;;5020885;28;20049;-49
2023/01/08 13:01:17;;;;;;;1.27;0.60;;;14.00;56.20;;;;;;5019614;28;20060;-46
2023/01/08 13:03:45;;;;;;;1.00;0.60;;;14.00;56.10;;;;;;5020073;28;20068;-45
2023/01/08 13:06:16;;;;;;;1.98;0.98;;;14.00;56.00;;;;;;5020272;28;20056;-46